sensor_id;sensor_type;location;lat;lon;timestamp;temperature;humidity
22607;DHT22;11470;20.968;105.834;2023-05-10T00:03:30;25.40;99.90
22607;DHT22;11470;20.968;105.834;2023-05-10T00:08:36;25.50;99.90
22607;DHT22;11470;20.968;105.834;2023-05-10T00:13:41;25.70;99.90
22607;DHT22;11470;20.968;105.834;2023-05-10T00:18:47;25.90;99.90
22607;DHT22;11470;20.968;105.834;2023-05-10T00:23:52;26.00;99.90
22607;DHT22;11470;20.968;105.834;2023-05-10T00:28:57;25.90;99.90
22607;DHT22;11470;20.968;105.834;2023-05-10T00:34:03;26.00;99.90
22607;DHT22;11470;20.968;105.834;2023-05-10T00:39:09;25.90;99.90
22607;DHT22;11470;20.968;105.834;2023-05-10T00:44:14;26.00;99.90
22607;DHT22;11470;20.968;105.834;2023-05-10T00:49:20;26.00;99.90
22607;DHT22;11470;20.968;105.834;2023-05-10T00:54:25;26.00;99.90
22607;DHT22;11470;20.968;105.834;2023-05-10T00:59:31;26.00;99.90
22607;DHT22;11470;20.968;105.834;2023-05-10T01:04:36;26.00;99.90
22607;DHT22;11470;20.968;105.834;2023-05-10T01:09:42;26.10;99.90
22607;DHT22;11470;20.968;105.834;2023-05-10T01:14:48;26.20;99.90
22607;DHT22;11470;20.968;105.834;2023-05-10T01:19:54;26.30;99.90
22607;DHT22;11470;20.968;105.834;2023-05-10T01:36:27;26.30;99.90
22607;DHT22;11470;20.968;105.834;2023-05-10T01:42:10;26.10;99.90
22607;DHT22;11470;20.968;105.834;2023-05-10T01:52:42;25.70;99.90
22607;DHT22;11470;20.968;105.834;2023-05-10T01:57:52;25.60;99.90
22607;DHT22;11470;20.968;105.834;2023-05-10T02:03:06;25.60;99.90
22607;DHT22;11470;20.968;105.834;2023-05-10T02:08:14;26.00;99.90
22607;DHT22;11470;20.968;105.834;2023-05-10T02:13:24;26.50;99.90
22607;DHT22;11470;20.968;105.834;2023-05-10T02:18:32;26.60;99.90
22607;DHT22;11470;20.968;105.834;2023-05-10T02:23:39;26.20;99.90
22607;DHT22;11470;20.968;105.834;2023-05-10T02:28:45;26.20;99.90
22607;DHT22;11470;20.968;105.834;2023-05-10T02:33:51;26.50;99.90
22607;DHT22;11470;20.968;105.834;2023-05-10T02:38:59;27.10;99.90
22607;DHT22;11470;20.968;105.834;2023-05-10T02:44:07;27.10;99.90
22607;DHT22;11470;20.968;105.834;2023-05-10T02:49:13;27.20;99.90
22607;DHT22;11470;20.968;105.834;2023-05-10T02:54:23;27.80;99.90
22607;DHT22;11470;20.968;105.834;2023-05-10T02:59:29;28.80;99.90
22607;DHT22;11470;20.968;105.834;2023-05-10T03:04:34;29.30;99.90
22607;DHT22;11470;20.968;105.834;2023-05-10T03:09:40;29.00;99.90
22607;DHT22;11470;20.968;105.834;2023-05-10T03:20:06;29.30;99.90
22607;DHT22;11470;20.968;105.834;2023-05-10T03:25:16;29.50;99.90
22607;DHT22;11470;20.968;105.834;2023-05-10T03:30:22;29.50;99.90
22607;DHT22;11470;20.968;105.834;2023-05-10T03:35:27;29.10;99.90
22607;DHT22;11470;20.968;105.834;2023-05-10T03:40:33;28.80;99.90
22607;DHT22;11470;20.968;105.834;2023-05-10T03:45:39;28.90;99.90
22607;DHT22;11470;20.968;105.834;2023-05-10T03:50:44;29.40;99.90
22607;DHT22;11470;20.968;105.834;2023-05-10T03:55:51;30.40;99.90
22607;DHT22;11470;20.968;105.834;2023-05-10T04:00:56;31.30;99.90
22607;DHT22;11470;20.968;105.834;2023-05-10T04:06:02;32.00;99.90
22607;DHT22;11470;20.968;105.834;2023-05-10T04:11:09;32.10;99.90
22607;DHT22;11470;20.968;105.834;2023-05-10T04:16:15;31.90;99.90
22607;DHT22;11470;20.968;105.834;2023-05-10T04:21:20;31.80;99.90
22607;DHT22;11470;20.968;105.834;2023-05-10T04:26:26;32.00;99.90
22607;DHT22;11470;20.968;105.834;2023-05-10T04:31:32;32.80;99.90
22607;DHT22;11470;20.968;105.834;2023-05-10T04:36:39;33.20;99.90
22607;DHT22;11470;20.968;105.834;2023-05-10T04:41:44;32.40;99.90
22607;DHT22;11470;20.968;105.834;2023-05-10T04:46:50;31.80;99.90
22607;DHT22;11470;20.968;105.834;2023-05-10T04:51:55;32.30;99.90
22607;DHT22;11470;20.968;105.834;2023-05-10T04:57:00;32.80;99.90
22607;DHT22;11470;20.968;105.834;2023-05-10T05:02:06;32.10;99.90
22607;DHT22;11470;20.968;105.834;2023-05-10T05:07:11;32.00;99.90
22607;DHT22;11470;20.968;105.834;2023-05-10T05:12:16;31.70;99.90
22607;DHT22;11470;20.968;105.834;2023-05-10T05:17:22;32.30;99.90
22607;DHT22;11470;20.968;105.834;2023-05-10T05:22:27;32.00;99.90
22607;DHT22;11470;20.968;105.834;2023-05-10T05:27:33;31.70;99.90
22607;DHT22;11470;20.968;105.834;2023-05-10T05:32:38;31.80;99.90
22607;DHT22;11470;20.968;105.834;2023-05-10T05:37:44;33.00;99.90
22607;DHT22;11470;20.968;105.834;2023-05-10T05:42:49;34.00;99.90
22607;DHT22;11470;20.968;105.834;2023-05-10T05:47:55;33.60;99.90
22607;DHT22;11470;20.968;105.834;2023-05-10T05:53:01;32.40;99.90
22607;DHT22;11470;20.968;105.834;2023-05-10T05:58:07;31.30;99.90
22607;DHT22;11470;20.968;105.834;2023-05-10T06:03:12;30.60;99.90
22607;DHT22;11470;20.968;105.834;2023-05-10T06:08:18;30.40;99.90
22607;DHT22;11470;20.968;105.834;2023-05-10T06:13:24;30.50;99.90
22607;DHT22;11470;20.968;105.834;2023-05-10T06:18:34;31.00;99.90
22607;DHT22;11470;20.968;105.834;2023-05-10T06:23:42;31.50;99.90
22607;DHT22;11470;20.968;105.834;2023-05-10T06:28:48;32.10;99.90
22607;DHT22;11470;20.968;105.834;2023-05-10T06:33:53;32.40;99.90
22607;DHT22;11470;20.968;105.834;2023-05-10T06:39:03;32.70;99.90
22607;DHT22;11470;20.968;105.834;2023-05-10T06:44:07;33.00;99.90
22607;DHT22;11470;20.968;105.834;2023-05-10T06:49:13;33.50;99.90
22607;DHT22;11470;20.968;105.834;2023-05-10T06:54:18;33.80;99.90
22607;DHT22;11470;20.968;105.834;2023-05-10T06:59:23;33.50;99.90
22607;DHT22;11470;20.968;105.834;2023-05-10T07:04:29;34.00;99.90
22607;DHT22;11470;20.968;105.834;2023-05-10T07:09:35;34.00;99.90
22607;DHT22;11470;20.968;105.834;2023-05-10T07:14:40;33.80;99.90
22607;DHT22;11470;20.968;105.834;2023-05-10T07:19:45;33.90;99.90
22607;DHT22;11470;20.968;105.834;2023-05-10T07:24:50;34.40;99.90
22607;DHT22;11470;20.968;105.834;2023-05-10T07:29:56;35.30;99.90
22607;DHT22;11470;20.968;105.834;2023-05-10T07:35:01;34.70;99.90
22607;DHT22;11470;20.968;105.834;2023-05-10T07:40:08;34.20;99.90
22607;DHT22;11470;20.968;105.834;2023-05-10T07:45:13;34.60;99.90
22607;DHT22;11470;20.968;105.834;2023-05-10T07:50:19;34.90;99.90
22607;DHT22;11470;20.968;105.834;2023-05-10T07:55:25;34.80;99.90
22607;DHT22;11470;20.968;105.834;2023-05-10T08:00:31;34.60;99.90
22607;DHT22;11470;20.968;105.834;2023-05-10T08:05:36;34.20;99.90
22607;DHT22;11470;20.968;105.834;2023-05-10T08:10:42;33.60;99.90
22607;DHT22;11470;20.968;105.834;2023-05-10T08:15:47;32.50;99.90
22607;DHT22;11470;20.968;105.834;2023-05-10T08:20:53;31.50;99.90
22607;DHT22;11470;20.968;105.834;2023-05-10T08:25:59;30.90;99.90
22607;DHT22;11470;20.968;105.834;2023-05-10T08:31:05;30.40;99.90
22607;DHT22;11470;20.968;105.834;2023-05-10T08:36:11;30.20;99.90
22607;DHT22;11470;20.968;105.834;2023-05-10T08:41:23;30.00;99.90
22607;DHT22;11470;20.968;105.834;2023-05-10T08:46:31;29.70;99.90
22607;DHT22;11470;20.968;105.834;2023-05-10T08:51:49;29.50;99.90
22607;DHT22;11470;20.968;105.834;2023-05-10T08:56:59;29.30;99.90
22607;DHT22;11470;20.968;105.834;2023-05-10T09:02:05;29.30;99.90
22607;DHT22;11470;20.968;105.834;2023-05-10T09:07:11;29.20;99.90
22607;DHT22;11470;20.968;105.834;2023-05-10T09:12:17;29.20;99.90
22607;DHT22;11470;20.968;105.834;2023-05-10T09:17:37;29.20;99.90
22607;DHT22;11470;20.968;105.834;2023-05-10T09:22:46;29.10;99.90
22607;DHT22;11470;20.968;105.834;2023-05-10T09:27:52;29.10;99.90
22607;DHT22;11470;20.968;105.834;2023-05-10T09:32:59;29.10;99.90
22607;DHT22;11470;20.968;105.834;2023-05-10T09:38:08;29.10;99.90
22607;DHT22;11470;20.968;105.834;2023-05-10T09:43:18;29.10;99.90
22607;DHT22;11470;20.968;105.834;2023-05-10T09:48:28;29.10;99.90
22607;DHT22;11470;20.968;105.834;2023-05-10T09:53:40;29.00;99.90
22607;DHT22;11470;20.968;105.834;2023-05-10T09:58:46;28.90;99.90
22607;DHT22;11470;20.968;105.834;2023-05-10T10:04:08;28.80;99.90
22607;DHT22;11470;20.968;105.834;2023-05-10T10:09:14;28.70;99.90
22607;DHT22;11470;20.968;105.834;2023-05-10T10:14:21;28.70;99.90
22607;DHT22;11470;20.968;105.834;2023-05-10T10:19:28;28.60;99.90
22607;DHT22;11470;20.968;105.834;2023-05-10T10:24:41;28.60;99.90
22607;DHT22;11470;20.968;105.834;2023-05-10T10:52:35;28.30;99.90
22607;DHT22;11470;20.968;105.834;2023-05-10T11:03:00;28.20;99.90
22607;DHT22;11470;20.968;105.834;2023-05-10T11:08:30;28.10;99.90
22607;DHT22;11470;20.968;105.834;2023-05-10T11:13:46;28.00;99.90
22607;DHT22;11470;20.968;105.834;2023-05-10T11:24:14;28.00;99.90
22607;DHT22;11470;20.968;105.834;2023-05-10T11:29:20;27.90;99.90
22607;DHT22;11470;20.968;105.834;2023-05-10T11:34:29;27.90;99.90
22607;DHT22;11470;20.968;105.834;2023-05-10T11:39:38;28.00;99.90
22607;DHT22;11470;20.968;105.834;2023-05-10T11:44:50;27.90;99.90
22607;DHT22;11470;20.968;105.834;2023-05-10T11:49:55;27.80;99.90
22607;DHT22;11470;20.968;105.834;2023-05-10T11:55:02;27.80;99.90
22607;DHT22;11470;20.968;105.834;2023-05-10T12:00:23;27.80;99.90
22607;DHT22;11470;20.968;105.834;2023-05-10T12:05:32;27.70;99.90
22607;DHT22;11470;20.968;105.834;2023-05-10T12:10:38;27.70;99.90
22607;DHT22;11470;20.968;105.834;2023-05-10T12:15:44;27.70;99.90
22607;DHT22;11470;20.968;105.834;2023-05-10T12:20:55;27.60;99.90
22607;DHT22;11470;20.968;105.834;2023-05-10T12:26:11;27.60;99.90
22607;DHT22;11470;20.968;105.834;2023-05-10T12:31:20;27.60;99.90
22607;DHT22;11470;20.968;105.834;2023-05-10T12:36:26;27.60;99.90
22607;DHT22;11470;20.968;105.834;2023-05-10T12:41:31;27.50;99.90
22607;DHT22;11470;20.968;105.834;2023-05-10T12:46:36;27.40;99.90
22607;DHT22;11470;20.968;105.834;2023-05-10T12:51:41;27.40;99.90
22607;DHT22;11470;20.968;105.834;2023-05-10T12:56:53;27.40;99.90
22607;DHT22;11470;20.968;105.834;2023-05-10T13:01:59;27.40;99.90
22607;DHT22;11470;20.968;105.834;2023-05-10T13:07:05;27.30;99.90
22607;DHT22;11470;20.968;105.834;2023-05-10T13:12:11;27.30;99.90
22607;DHT22;11470;20.968;105.834;2023-05-10T13:17:17;27.30;99.90
22607;DHT22;11470;20.968;105.834;2023-05-10T13:22:21;27.20;99.90
22607;DHT22;11470;20.968;105.834;2023-05-10T13:27:42;27.30;99.90
22607;DHT22;11470;20.968;105.834;2023-05-10T13:32:46;27.30;99.90
22607;DHT22;11470;20.968;105.834;2023-05-10T13:37:52;27.20;99.90
22607;DHT22;11470;20.968;105.834;2023-05-10T13:42:58;27.20;99.90
22607;DHT22;11470;20.968;105.834;2023-05-10T13:48:05;27.20;99.90
22607;DHT22;11470;20.968;105.834;2023-05-10T13:53:14;27.20;99.90
22607;DHT22;11470;20.968;105.834;2023-05-10T13:58:20;27.20;99.90
22607;DHT22;11470;20.968;105.834;2023-05-10T14:03:26;27.20;99.90
22607;DHT22;11470;20.968;105.834;2023-05-10T14:08:34;27.10;99.90
22607;DHT22;11470;20.968;105.834;2023-05-10T14:13:39;27.10;99.90
22607;DHT22;11470;20.968;105.834;2023-05-10T14:18:46;27.10;99.90
22607;DHT22;11470;20.968;105.834;2023-05-10T14:24:04;27.00;99.90
22607;DHT22;11470;20.968;105.834;2023-05-10T14:29:12;27.00;99.90
22607;DHT22;11470;20.968;105.834;2023-05-10T14:34:18;27.10;99.90
22607;DHT22;11470;20.968;105.834;2023-05-10T14:39:25;27.00;99.90
22607;DHT22;11470;20.968;105.834;2023-05-10T14:44:29;27.00;99.90
22607;DHT22;11470;20.968;105.834;2023-05-10T14:49:36;27.00;99.90
22607;DHT22;11470;20.968;105.834;2023-05-10T14:54:41;27.00;99.90
22607;DHT22;11470;20.968;105.834;2023-05-10T14:59:47;26.90;99.90
22607;DHT22;11470;20.968;105.834;2023-05-10T15:04:53;26.90;99.90
22607;DHT22;11470;20.968;105.834;2023-05-10T15:10:03;26.90;99.90
22607;DHT22;11470;20.968;105.834;2023-05-10T15:15:08;26.80;99.90
22607;DHT22;11470;20.968;105.834;2023-05-10T15:20:14;26.80;99.90
22607;DHT22;11470;20.968;105.834;2023-05-10T15:25:23;26.80;99.90
22607;DHT22;11470;20.968;105.834;2023-05-10T15:30:30;26.80;99.90
22607;DHT22;11470;20.968;105.834;2023-05-10T15:35:35;26.80;99.90
22607;DHT22;11470;20.968;105.834;2023-05-10T15:40:42;26.80;99.90
22607;DHT22;11470;20.968;105.834;2023-05-10T15:45:48;26.80;99.90
22607;DHT22;11470;20.968;105.834;2023-05-10T15:50:53;26.70;99.90
22607;DHT22;11470;20.968;105.834;2023-05-10T15:55:58;26.70;99.90
22607;DHT22;11470;20.968;105.834;2023-05-10T16:01:05;26.70;99.90
22607;DHT22;11470;20.968;105.834;2023-05-10T16:06:11;26.70;99.90
22607;DHT22;11470;20.968;105.834;2023-05-10T16:11:17;26.70;99.90
22607;DHT22;11470;20.968;105.834;2023-05-10T16:16:23;26.70;99.90
22607;DHT22;11470;20.968;105.834;2023-05-10T16:21:41;26.80;99.90
22607;DHT22;11470;20.968;105.834;2023-05-10T16:26:47;26.70;99.90
22607;DHT22;11470;20.968;105.834;2023-05-10T16:31:53;26.70;99.90
22607;DHT22;11470;20.968;105.834;2023-05-10T16:36:59;26.70;99.90
22607;DHT22;11470;20.968;105.834;2023-05-10T16:42:10;26.70;99.90
22607;DHT22;11470;20.968;105.834;2023-05-10T16:47:22;26.70;99.90
22607;DHT22;11470;20.968;105.834;2023-05-10T16:52:31;26.60;99.90
22607;DHT22;11470;20.968;105.834;2023-05-10T16:57:36;26.60;99.90
22607;DHT22;11470;20.968;105.834;2023-05-10T17:02:42;26.60;99.90
22607;DHT22;11470;20.968;105.834;2023-05-10T17:07:48;26.60;99.90
22607;DHT22;11470;20.968;105.834;2023-05-10T17:12:54;26.50;99.90
22607;DHT22;11470;20.968;105.834;2023-05-10T17:18:00;26.50;99.90
22607;DHT22;11470;20.968;105.834;2023-05-10T17:23:05;26.50;99.90
22607;DHT22;11470;20.968;105.834;2023-05-10T17:28:11;26.60;99.90
22607;DHT22;11470;20.968;105.834;2023-05-10T17:33:16;26.50;99.90
22607;DHT22;11470;20.968;105.834;2023-05-10T17:38:22;26.50;99.90
22607;DHT22;11470;20.968;105.834;2023-05-10T17:43:28;26.50;99.90
22607;DHT22;11470;20.968;105.834;2023-05-10T17:48:33;26.50;99.90
22607;DHT22;11470;20.968;105.834;2023-05-10T17:53:40;26.50;99.90
22607;DHT22;11470;20.968;105.834;2023-05-10T17:58:49;26.50;99.90
22607;DHT22;11470;20.968;105.834;2023-05-10T18:03:55;26.50;99.90
22607;DHT22;11470;20.968;105.834;2023-05-10T18:09:01;26.50;99.90
22607;DHT22;11470;20.968;105.834;2023-05-10T18:14:07;26.50;99.90
22607;DHT22;11470;20.968;105.834;2023-05-10T18:19:13;26.50;99.90
22607;DHT22;11470;20.968;105.834;2023-05-10T18:24:19;26.50;99.90
22607;DHT22;11470;20.968;105.834;2023-05-10T18:29:42;26.50;99.90
22607;DHT22;11470;20.968;105.834;2023-05-10T18:34:47;26.50;99.90
22607;DHT22;11470;20.968;105.834;2023-05-10T18:39:53;26.50;99.90
22607;DHT22;11470;20.968;105.834;2023-05-10T18:44:58;26.50;99.90
22607;DHT22;11470;20.968;105.834;2023-05-10T18:50:04;26.50;99.90
22607;DHT22;11470;20.968;105.834;2023-05-10T18:55:10;26.40;99.90
22607;DHT22;11470;20.968;105.834;2023-05-10T19:00:16;26.40;99.90
22607;DHT22;11470;20.968;105.834;2023-05-10T19:05:23;26.30;99.90
22607;DHT22;11470;20.968;105.834;2023-05-10T19:10:33;26.30;99.90
22607;DHT22;11470;20.968;105.834;2023-05-10T19:15:39;26.30;99.90
22607;DHT22;11470;20.968;105.834;2023-05-10T19:20:45;26.30;99.90
22607;DHT22;11470;20.968;105.834;2023-05-10T19:25:50;26.40;99.90
22607;DHT22;11470;20.968;105.834;2023-05-10T19:30:56;26.40;99.90
22607;DHT22;11470;20.968;105.834;2023-05-10T19:36:02;26.40;99.90
22607;DHT22;11470;20.968;105.834;2023-05-10T19:41:08;26.40;99.90
22607;DHT22;11470;20.968;105.834;2023-05-10T19:46:15;26.40;99.90
22607;DHT22;11470;20.968;105.834;2023-05-10T19:51:32;26.40;99.90
22607;DHT22;11470;20.968;105.834;2023-05-10T19:56:44;26.30;99.90
22607;DHT22;11470;20.968;105.834;2023-05-10T20:01:49;26.30;99.90
22607;DHT22;11470;20.968;105.834;2023-05-10T20:06:55;26.40;99.90
22607;DHT22;11470;20.968;105.834;2023-05-10T20:12:00;26.40;99.90
22607;DHT22;11470;20.968;105.834;2023-05-10T20:17:05;26.40;99.90
22607;DHT22;11470;20.968;105.834;2023-05-10T20:22:10;26.40;99.90
22607;DHT22;11470;20.968;105.834;2023-05-10T20:27:16;26.40;99.90
22607;DHT22;11470;20.968;105.834;2023-05-10T20:32:22;26.40;99.90
22607;DHT22;11470;20.968;105.834;2023-05-10T20:37:28;26.40;99.90
22607;DHT22;11470;20.968;105.834;2023-05-10T20:42:33;26.40;99.90
22607;DHT22;11470;20.968;105.834;2023-05-10T20:47:38;26.50;99.90
22607;DHT22;11470;20.968;105.834;2023-05-10T20:52:44;26.50;99.90
22607;DHT22;11470;20.968;105.834;2023-05-10T20:57:50;26.40;99.90
22607;DHT22;11470;20.968;105.834;2023-05-10T21:02:56;26.30;99.90
22607;DHT22;11470;20.968;105.834;2023-05-10T21:08:02;26.20;99.90
22607;DHT22;11470;20.968;105.834;2023-05-10T21:13:07;26.10;99.90
22607;DHT22;11470;20.968;105.834;2023-05-10T21:18:13;26.10;99.90
22607;DHT22;11470;20.968;105.834;2023-05-10T21:23:18;26.00;99.90
22607;DHT22;11470;20.968;105.834;2023-05-10T21:28:23;25.90;99.90
22607;DHT22;11470;20.968;105.834;2023-05-10T21:33:29;25.90;99.90
22607;DHT22;11470;20.968;105.834;2023-05-10T21:38:34;25.90;99.90
22607;DHT22;11470;20.968;105.834;2023-05-10T21:43:39;26.10;99.90
22607;DHT22;11470;20.968;105.834;2023-05-10T21:48:45;26.30;99.90
22607;DHT22;11470;20.968;105.834;2023-05-10T21:53:50;26.20;99.90
22607;DHT22;11470;20.968;105.834;2023-05-10T21:58:56;26.10;99.90
22607;DHT22;11470;20.968;105.834;2023-05-10T22:04:02;25.90;99.90
22607;DHT22;11470;20.968;105.834;2023-05-10T22:09:08;25.70;99.90
22607;DHT22;11470;20.968;105.834;2023-05-10T22:14:14;25.60;99.90
22607;DHT22;11470;20.968;105.834;2023-05-10T22:19:19;25.60;99.90
22607;DHT22;11470;20.968;105.834;2023-05-10T22:24:24;25.60;99.90
22607;DHT22;11470;20.968;105.834;2023-05-10T22:29:30;25.60;99.90
22607;DHT22;11470;20.968;105.834;2023-05-10T22:34:35;25.60;99.90
22607;DHT22;11470;20.968;105.834;2023-05-10T22:39:41;25.60;99.90
22607;DHT22;11470;20.968;105.834;2023-05-10T22:44:46;25.50;99.90
22607;DHT22;11470;20.968;105.834;2023-05-10T22:49:52;25.60;99.90
22607;DHT22;11470;20.968;105.834;2023-05-10T22:54:58;25.70;99.90
22607;DHT22;11470;20.968;105.834;2023-05-10T23:00:05;25.70;99.90
22607;DHT22;11470;20.968;105.834;2023-05-10T23:05:10;25.90;99.90
22607;DHT22;11470;20.968;105.834;2023-05-10T23:10:16;25.90;99.90
22607;DHT22;11470;20.968;105.834;2023-05-10T23:15:22;26.00;99.90
22607;DHT22;11470;20.968;105.834;2023-05-10T23:20:28;26.10;99.90
22607;DHT22;11470;20.968;105.834;2023-05-10T23:25:35;26.10;99.90
22607;DHT22;11470;20.968;105.834;2023-05-10T23:30:41;26.10;99.90
22607;DHT22;11470;20.968;105.834;2023-05-10T23:35:46;26.20;99.90
22607;DHT22;11470;20.968;105.834;2023-05-10T23:40:52;26.50;99.90
22607;DHT22;11470;20.968;105.834;2023-05-10T23:45:58;26.70;99.90
22607;DHT22;11470;20.968;105.834;2023-05-10T23:51:04;27.00;99.90
22607;DHT22;11470;20.968;105.834;2023-05-10T23:56:09;27.20;99.90
